createdAt,value
2023-02-23T00:01:49.443Z,9.20
2023-02-23T00:06:52.457Z,9.30
2023-02-23T00:11:56.782Z,9.10
2023-02-23T00:17:00.194Z,7.00
2023-02-23T00:22:01.970Z,9.40
2023-02-23T00:27:06.460Z,9.40
2023-02-23T00:32:08.313Z,9.30
2023-02-23T00:37:10.259Z,9.30
2023-02-23T00:42:13.622Z,9.30
2023-02-23T00:47:15.927Z,9.30
2023-02-23T00:52:17.704Z,9.40
2023-02-23T00:57:19.437Z,9.30
2023-02-23T01:02:21.216Z,9.30
2023-02-23T01:07:25.768Z,9.30
2023-02-23T01:12:27.480Z,9.40
2023-02-23T01:17:30.622Z,9.80
2023-02-23T01:22:32.391Z,9.50
2023-02-23T01:27:35.533Z,9.50
2023-02-23T01:32:38.129Z,9.50
2023-02-23T01:37:42.618Z,10.60
2023-02-23T01:42:46.964Z,9.40
2023-02-23T01:47:49.328Z,9.50
2023-02-23T01:52:52.420Z,9.60
2023-02-23T01:58:16.672Z,10.30
2023-02-23T02:03:29.572Z,9.30
2023-02-23T02:08:34.414Z,9.30
2023-02-23T02:13:37.661Z,9.40
2023-02-23T02:19:06.344Z,9.50
2023-02-23T02:24:47.649Z,9.60
2023-02-23T02:30:27.132Z,9.60
2023-02-23T02:35:55.471Z,9.70
2023-02-23T02:41:12.210Z,9.50
2023-02-23T02:46:37.566Z,9.50
2023-02-23T02:51:53.785Z,9.30
2023-02-23T02:57:00.553Z,9.60
2023-02-23T03:02:24.624Z,9.40
2023-02-23T03:08:01.178Z,9.90
2023-02-23T03:14:01.201Z,9.40
2023-02-23T03:19:33.709Z,9.60
2023-02-23T03:25:19.051Z,9.60
2023-02-23T03:30:45.782Z,10.60
2023-02-23T03:36:22.327Z,9.50
2023-02-23T03:41:45.271Z,9.60
2023-02-23T03:47:07.209Z,9.50
2023-02-23T03:52:42.379Z,9.40
2023-02-23T03:58:07.609Z,9.50
2023-02-23T04:03:34.364Z,11.40
2023-02-23T04:08:57.122Z,9.50
2023-02-23T04:14:02.849Z,9.60
2023-02-23T04:19:04.951Z,9.50
2023-02-23T04:24:06.802Z,9.60
2023-02-23T04:29:08.855Z,9.60
2023-02-23T04:34:10.725Z,9.70
2023-02-23T04:39:12.873Z,9.40
2023-02-23T04:44:14.976Z,9.40
2023-02-23T04:49:16.813Z,9.50
2023-02-23T04:54:18.548Z,9.60
2023-02-23T04:59:20.391Z,10.30
2023-02-23T05:09:24.615Z,9.50
2023-02-23T05:19:29.144Z,9.50
2023-02-23T05:24:31.144Z,9.50
2023-02-23T05:29:32.907Z,9.70
2023-02-23T05:34:36.152Z,9.30
2023-02-23T05:39:38.258Z,9.30
2023-02-23T05:44:39.982Z,9.50
2023-02-23T05:49:43.136Z,9.70
2023-02-23T05:54:46.745Z,11.60
2023-02-23T05:59:48.550Z,9.60
2023-02-23T06:04:52.116Z,9.70
2023-02-23T06:09:54.177Z,12.60
2023-02-23T06:20:02.122Z,9.70
2023-02-23T06:25:05.107Z,9.60
2023-02-23T06:30:08.241Z,9.70
2023-02-23T06:35:10.263Z,9.70
2023-02-23T06:40:12.136Z,9.70
2023-02-23T06:45:14.192Z,9.70
2023-02-23T06:50:17.277Z,10.10
2023-02-23T06:55:19.406Z,9.70
2023-02-23T07:00:22.194Z,9.90
2023-02-23T07:05:24.302Z,9.90
2023-02-23T07:10:26.234Z,9.80
2023-02-23T07:15:28.226Z,9.80
2023-02-23T07:20:31.899Z,9.80
2023-02-23T07:25:33.993Z,9.80
2023-02-23T07:30:36.468Z,9.80
2023-02-23T07:35:42.861Z,9.90
2023-02-23T07:45:47.569Z,9.90
2023-02-23T07:50:49.290Z,10.60
2023-02-23T07:55:58.432Z,10.20
2023-02-23T08:06:04.322Z,10.30
2023-02-23T08:11:06.356Z,10.40
2023-02-23T08:16:08.484Z,10.50
2023-02-23T08:21:10.767Z,10.50
2023-02-23T08:26:12.775Z,11.80
2023-02-23T08:31:16.546Z,10.70
2023-02-23T08:36:19.009Z,10.60
2023-02-23T08:41:21.891Z,10.70
2023-02-23T08:46:23.845Z,10.80
2023-02-23T08:51:25.748Z,10.80
2023-02-23T08:56:34.925Z,10.60
2023-02-23T09:01:37.599Z,11.00
2023-02-23T09:06:41.241Z,11.00
2023-02-23T09:11:43.366Z,11.30
2023-02-23T09:16:46.146Z,11.30
2023-02-23T09:21:47.974Z,11.50
2023-02-23T09:26:49.897Z,11.50
2023-02-23T09:31:53.073Z,11.80
2023-02-23T09:36:56.064Z,11.70
2023-02-23T09:42:16.216Z,11.80
2023-02-23T09:47:40.880Z,11.70
2023-02-23T09:52:45.438Z,11.90
2023-02-23T09:57:49.554Z,12.00
2023-02-23T10:03:17.105Z,12.00
2023-02-23T10:08:45.400Z,11.90
2023-02-23T10:14:12.472Z,12.10
2023-02-23T10:19:37.973Z,12.60
2023-02-23T10:24:45.317Z,13.00
2023-02-23T10:29:54.914Z,12.90
2023-02-23T10:34:57.075Z,13.20
2023-02-23T10:39:59.247Z,13.30
2023-02-23T10:45:01.609Z,13.00
2023-02-23T10:50:03.796Z,13.10
2023-02-23T10:55:07.736Z,13.30
2023-02-23T11:00:16.913Z,13.50
2023-02-23T11:05:27.851Z,14.50
2023-02-23T11:10:30.325Z,15.20
2023-02-23T11:15:50.272Z,15.90
2023-02-23T11:20:53.024Z,15.80
2023-02-23T11:26:00.208Z,15.70
2023-02-23T11:31:10.009Z,16.50
2023-02-23T11:36:22.536Z,17.60
2023-02-23T11:41:24.889Z,15.90
2023-02-23T11:46:28.721Z,15.40
2023-02-23T11:51:41.479Z,15.00
2023-02-23T11:56:51.016Z,15.00
2023-02-23T12:01:55.072Z,14.80
2023-02-23T12:07:26.032Z,14.80
2023-02-23T12:12:31.140Z,14.90
2023-02-23T12:17:49.599Z,14.90
2023-02-23T12:23:23.428Z,14.90
2023-02-23T12:28:52.774Z,15.20
2023-02-23T12:34:31.296Z,15.30
2023-02-23T12:39:36.681Z,15.20
2023-02-23T12:44:49.134Z,15.20
2023-02-23T12:50:25.930Z,15.00
2023-02-23T12:55:49.269Z,15.20
2023-02-23T13:01:03.637Z,15.50
2023-02-23T13:06:17.082Z,16.10
2023-02-23T13:11:34.498Z,16.80
2023-02-23T13:16:48.914Z,18.80
2023-02-23T13:22:28.404Z,19.90
2023-02-23T13:27:35.472Z,20.90
2023-02-23T13:32:39.229Z,21.80
2023-02-23T13:37:45.968Z,21.30
2023-02-23T13:43:03.128Z,19.90
2023-02-23T13:48:30.846Z,17.80
2023-02-23T13:53:44.281Z,17.30
2023-02-23T13:58:52.634Z,16.40
2023-02-23T14:03:57.528Z,15.80
2023-02-23T14:09:24.379Z,15.40
2023-02-23T14:14:32.036Z,15.20
2023-02-23T14:19:41.133Z,15.20
2023-02-23T14:24:43.296Z,15.10
2023-02-23T14:30:10.979Z,15.10
2023-02-23T14:35:37.746Z,14.60
2023-02-23T14:40:42.824Z,14.60
2023-02-23T14:51:40.501Z,14.50
2023-02-23T14:57:20.201Z,14.40
2023-02-23T15:02:24.850Z,14.40
2023-02-23T15:07:33.490Z,14.80
2023-02-23T15:12:38.054Z,14.30
2023-02-23T15:17:44.079Z,14.20
2023-02-23T15:22:55.020Z,14.10
2023-02-23T15:27:56.838Z,14.10
2023-02-23T15:33:14.916Z,14.00
2023-02-23T15:38:42.255Z,13.90
2023-02-23T15:43:45.069Z,13.90
2023-02-23T15:48:49.464Z,13.80
2023-02-23T15:53:51.742Z,13.80
2023-02-23T15:59:03.078Z,12.40
2023-02-23T16:04:16.201Z,13.70
2023-02-23T16:09:21.287Z,13.50
2023-02-23T16:14:26.143Z,13.40
2023-02-23T16:19:29.643Z,13.40
2023-02-23T16:24:34.617Z,13.20
2023-02-23T16:29:44.027Z,13.20
2023-02-23T16:35:09.429Z,13.20
2023-02-23T16:40:13.219Z,13.10
2023-02-23T16:45:17.156Z,13.00
2023-02-23T16:50:24.486Z,12.90
2023-02-23T16:55:29.738Z,14.70
2023-02-23T17:00:33.889Z,12.70
2023-02-23T17:05:35.646Z,12.60
2023-02-23T17:10:37.701Z,12.50
2023-02-23T17:15:42.307Z,11.30
2023-02-23T17:20:44.412Z,12.20
2023-02-23T17:25:46.542Z,11.00
2023-02-23T17:30:48.679Z,12.30
2023-02-23T17:35:50.548Z,12.30
2023-02-23T17:40:52.459Z,12.30
2023-02-23T17:45:57.218Z,12.30
2023-02-23T17:51:04.840Z,12.10
2023-02-23T17:56:07.453Z,11.90
2023-02-23T18:01:09.879Z,11.80
2023-02-23T18:06:13.385Z,11.80
2023-02-23T18:11:18.535Z,11.70
2023-02-23T18:16:21.659Z,11.70
2023-02-23T18:21:23.689Z,11.80
2023-02-23T18:26:25.664Z,11.70
2023-02-23T18:31:28.866Z,11.70
2023-02-23T18:36:31.920Z,11.60
2023-02-23T18:41:34.018Z,11.50
2023-02-23T18:46:36.280Z,11.40
2023-02-23T18:51:38.085Z,11.40
2023-02-23T18:56:40.221Z,11.40
2023-02-23T19:01:45.291Z,11.40
2023-02-23T19:06:47.448Z,11.40
2023-02-23T19:11:50.653Z,11.30
2023-02-23T19:16:52.496Z,11.30
2023-02-23T19:21:54.428Z,11.30
2023-02-23T19:26:56.224Z,11.20
2023-02-23T19:31:58.334Z,11.00
2023-02-23T19:37:00.215Z,11.10
2023-02-23T19:42:02.650Z,11.10
2023-02-23T19:47:04.392Z,11.10
2023-02-23T19:52:06.360Z,11.00
2023-02-23T19:57:09.948Z,11.00
2023-02-23T20:02:11.869Z,11.10
2023-02-23T20:07:14.461Z,14.90
2023-02-23T20:12:16.201Z,10.90
2023-02-23T20:17:17.984Z,10.90
2023-02-23T20:22:19.858Z,10.90
2023-02-23T20:27:22.633Z,10.80
2023-02-23T20:32:24.611Z,12.20
2023-02-23T20:37:26.765Z,10.80
2023-02-23T20:42:28.635Z,11.10
2023-02-23T20:47:30.410Z,10.80
2023-02-23T20:52:32.145Z,10.80
2023-02-23T20:57:34.970Z,10.80
2023-02-23T21:02:38.848Z,10.70
2023-02-23T21:07:40.742Z,10.20
2023-02-23T21:12:42.598Z,10.60
2023-02-23T21:17:44.437Z,10.60
2023-02-23T21:22:49.263Z,10.50
2023-02-23T21:27:51.500Z,10.60
2023-02-23T21:32:53.692Z,11.40
2023-02-23T21:37:56.884Z,10.70
2023-02-23T21:42:58.694Z,10.50
2023-02-23T21:48:00.588Z,10.50
2023-02-23T21:53:02.394Z,10.20
2023-02-23T21:58:06.940Z,10.20
2023-02-23T22:03:09.510Z,10.30
2023-02-23T22:08:15.789Z,10.30
2023-02-23T22:13:17.821Z,10.40
2023-02-23T22:18:19.560Z,10.50
2023-02-23T22:23:21.372Z,7.80
2023-02-23T22:28:23.149Z,10.70
2023-02-23T22:33:24.939Z,10.50
2023-02-23T22:38:26.719Z,7.80
2023-02-23T22:43:30.297Z,10.20
2023-02-23T22:48:32.639Z,10.30
2023-02-23T22:53:34.597Z,10.30
2023-02-23T22:58:36.824Z,10.40
2023-02-23T23:03:45.709Z,10.40
2023-02-23T23:08:49.428Z,10.40
2023-02-23T23:13:54.216Z,10.40
2023-02-23T23:19:00.630Z,10.80
2023-02-23T23:24:07.631Z,10.40
2023-02-23T23:29:11.912Z,10.20
2023-02-23T23:34:16.885Z,10.20
2023-02-23T23:39:21.337Z,10.10
2023-02-23T23:44:29.100Z,10.30
2023-02-23T23:49:37.849Z,11.20
2023-02-23T23:54:41.218Z,10.00
2023-02-23T23:59:46.150Z,10.00
